sensor_id;sensor_type;location;lat;lon;timestamp;temperature;humidity
698;DHT22;331;48.414;9.938;2023-02-22T14:26:26;8.90;99.90
698;DHT22;331;48.414;9.938;2023-02-22T14:28:54;8.90;99.90
698;DHT22;331;48.414;9.938;2023-02-22T14:31:24;8.90;99.90
698;DHT22;331;48.414;9.938;2023-02-22T14:33:54;9.00;99.90
698;DHT22;331;48.414;9.938;2023-02-22T14:36:21;9.00;99.90
698;DHT22;331;48.414;9.938;2023-02-22T14:38:49;9.10;99.90
698;DHT22;331;48.414;9.938;2023-02-22T14:41:33;9.10;99.90
698;DHT22;331;48.414;9.938;2023-02-22T14:44:02;9.20;99.90
698;DHT22;331;48.414;9.938;2023-02-22T14:46:31;9.20;99.90
698;DHT22;331;48.414;9.938;2023-02-22T14:49:05;9.20;99.90
698;DHT22;331;48.414;9.938;2023-02-22T14:51:37;9.20;99.90
698;DHT22;331;48.414;9.938;2023-02-22T14:54:06;9.20;99.90
698;DHT22;331;48.414;9.938;2023-02-22T14:56:37;9.20;99.90
698;DHT22;331;48.414;9.938;2023-02-22T14:59:12;9.30;99.90
698;DHT22;331;48.414;9.938;2023-02-22T15:01:40;9.30;99.90
698;DHT22;331;48.414;9.938;2023-02-22T15:04:18;9.30;99.90
698;DHT22;331;48.414;9.938;2023-02-22T15:06:45;9.30;99.90
698;DHT22;331;48.414;9.938;2023-02-22T15:09:17;9.40;99.90
698;DHT22;331;48.414;9.938;2023-02-22T15:11:50;9.40;99.90
698;DHT22;331;48.414;9.938;2023-02-22T15:14:31;9.40;99.90
698;DHT22;331;48.414;9.938;2023-02-22T15:17:02;9.40;99.90
698;DHT22;331;48.414;9.938;2023-02-22T15:19:30;9.50;99.90
698;DHT22;331;48.414;9.938;2023-02-22T15:22:04;9.50;99.90
698;DHT22;331;48.414;9.938;2023-02-22T15:27:04;10.40;99.90
698;DHT22;331;48.414;9.938;2023-02-22T15:29:34;10.60;99.90
698;DHT22;331;48.414;9.938;2023-02-22T15:32:01;10.70;99.90
698;DHT22;331;48.414;9.938;2023-02-22T15:34:29;10.80;99.90
698;DHT22;331;48.414;9.938;2023-02-22T15:36:57;10.60;99.90
698;DHT22;331;48.414;9.938;2023-02-22T15:39:29;10.70;99.90
698;DHT22;331;48.414;9.938;2023-02-22T15:42:06;10.70;99.90
698;DHT22;331;48.414;9.938;2023-02-22T15:44:34;10.70;99.90
698;DHT22;331;48.414;9.938;2023-02-22T15:47:01;10.80;99.90
698;DHT22;331;48.414;9.938;2023-02-22T15:49:28;10.80;99.90
698;DHT22;331;48.414;9.938;2023-02-22T15:52:03;10.70;99.90
698;DHT22;331;48.414;9.938;2023-02-22T15:54:36;10.70;99.90
698;DHT22;331;48.414;9.938;2023-02-22T15:57:03;10.80;99.90
698;DHT22;331;48.414;9.938;2023-02-22T15:59:32;10.80;99.90
698;DHT22;331;48.414;9.938;2023-02-22T16:02:06;10.80;99.90
698;DHT22;331;48.414;9.938;2023-02-22T16:04:43;10.80;99.90
698;DHT22;331;48.414;9.938;2023-02-22T16:07:11;10.70;99.90
698;DHT22;331;48.414;9.938;2023-02-22T16:09:45;10.60;99.90
698;DHT22;331;48.414;9.938;2023-02-22T16:12:24;10.40;99.90
698;DHT22;331;48.414;9.938;2023-02-22T16:14:53;10.40;99.90
698;DHT22;331;48.414;9.938;2023-02-22T16:17:46;10.40;99.90
698;DHT22;331;48.414;9.938;2023-02-22T16:20:30;10.50;99.90
698;DHT22;331;48.414;9.938;2023-02-22T16:25:30;10.40;99.90
698;DHT22;331;48.414;9.938;2023-02-22T18:48:32;9.70;99.90
698;DHT22;331;48.414;9.938;2023-02-22T18:56:48;9.70;99.90
698;DHT22;331;48.414;9.938;2023-02-22T18:59:33;9.60;99.90
698;DHT22;331;48.414;9.938;2023-02-22T19:02:11;9.60;99.90
698;DHT22;331;48.414;9.938;2023-02-22T19:04:46;9.60;99.90
698;DHT22;331;48.414;9.938;2023-02-22T19:07:26;9.60;99.90
698;DHT22;331;48.414;9.938;2023-02-22T19:10:08;9.60;99.90
698;DHT22;331;48.414;9.938;2023-02-22T19:12:51;9.60;99.90
698;DHT22;331;48.414;9.938;2023-02-22T19:15:38;9.60;99.90
698;DHT22;331;48.414;9.938;2023-02-22T19:18:08;9.50;99.90
698;DHT22;331;48.414;9.938;2023-02-22T19:20:44;9.50;99.90
698;DHT22;331;48.414;9.938;2023-02-22T19:23:14;9.60;99.90
698;DHT22;331;48.414;9.938;2023-02-22T19:25:51;9.50;99.90
698;DHT22;331;48.414;9.938;2023-02-22T19:31:15;9.40;99.90
698;DHT22;331;48.414;9.938;2023-02-22T19:33:48;9.40;99.90
698;DHT22;331;48.414;9.938;2023-02-22T19:36:24;9.40;99.90
698;DHT22;331;48.414;9.938;2023-02-22T19:38:56;9.50;99.90
698;DHT22;331;48.414;9.938;2023-02-22T19:41:31;9.40;99.90
698;DHT22;331;48.414;9.938;2023-02-22T19:44:13;9.30;99.90
698;DHT22;331;48.414;9.938;2023-02-22T19:46:46;9.30;99.90
698;DHT22;331;48.414;9.938;2023-02-22T19:49:16;9.30;99.90
698;DHT22;331;48.414;9.938;2023-02-22T19:51:47;9.20;99.90
698;DHT22;331;48.414;9.938;2023-02-22T19:54:18;9.30;99.90
698;DHT22;331;48.414;9.938;2023-02-22T19:56:49;9.30;99.90
698;DHT22;331;48.414;9.938;2023-02-22T19:59:20;9.30;99.90
698;DHT22;331;48.414;9.938;2023-02-22T20:01:51;9.30;99.90
698;DHT22;331;48.414;9.938;2023-02-22T20:04:23;9.30;99.90
698;DHT22;331;48.414;9.938;2023-02-22T20:06:57;9.30;99.90
698;DHT22;331;48.414;9.938;2023-02-22T20:09:31;9.30;99.90
698;DHT22;331;48.414;9.938;2023-02-22T20:12:05;9.30;99.90
698;DHT22;331;48.414;9.938;2023-02-22T20:14:35;9.20;99.90
698;DHT22;331;48.414;9.938;2023-02-22T20:17:04;9.20;99.90
698;DHT22;331;48.414;9.938;2023-02-22T20:19:33;9.20;99.90
698;DHT22;331;48.414;9.938;2023-02-22T20:22:05;9.20;99.90
698;DHT22;331;48.414;9.938;2023-02-22T20:24:38;9.20;99.90
698;DHT22;331;48.414;9.938;2023-02-22T20:27:07;9.20;99.90
698;DHT22;331;48.414;9.938;2023-02-22T20:29:38;9.20;99.90
698;DHT22;331;48.414;9.938;2023-02-22T20:32:09;9.20;99.90
698;DHT22;331;48.414;9.938;2023-02-22T20:34:43;9.20;99.90
698;DHT22;331;48.414;9.938;2023-02-22T20:40:19;9.10;99.90
698;DHT22;331;48.414;9.938;2023-02-22T20:43:07;9.10;99.90
698;DHT22;331;48.414;9.938;2023-02-22T20:45:38;9.00;99.90
698;DHT22;331;48.414;9.938;2023-02-22T20:48:05;9.00;99.90
698;DHT22;331;48.414;9.938;2023-02-22T20:50:33;9.10;99.90
